sensor_id;sensor_type;location;lat;lon;timestamp;temperature;humidity
16674;DHT22;8450;52.654;10.326;2023-01-01T08:39:53;12.40;99.90
16674;DHT22;8450;52.654;10.326;2023-01-01T08:42:18;12.40;99.90
16674;DHT22;8450;52.654;10.326;2023-01-01T08:44:44;12.40;99.90
16674;DHT22;8450;52.654;10.326;2023-01-01T08:47:22;12.40;99.90
16674;DHT22;8450;52.654;10.326;2023-01-01T08:49:48;12.50;99.90
16674;DHT22;8450;52.654;10.326;2023-01-01T08:52:14;12.50;99.90
16674;DHT22;8450;52.654;10.326;2023-01-01T08:54:40;12.40;99.90
16674;DHT22;8450;52.654;10.326;2023-01-01T08:57:06;12.40;99.90
16674;DHT22;8450;52.654;10.326;2023-01-01T08:59:31;12.50;99.90
16674;DHT22;8450;52.654;10.326;2023-01-01T09:01:57;12.50;99.90
16674;DHT22;8450;52.654;10.326;2023-01-01T09:04:24;12.50;99.90
16674;DHT22;8450;52.654;10.326;2023-01-01T09:06:50;12.50;99.90
16674;DHT22;8450;52.654;10.326;2023-01-01T09:09:15;12.50;99.90
16674;DHT22;8450;52.654;10.326;2023-01-01T09:11:52;12.50;99.90
16674;DHT22;8450;52.654;10.326;2023-01-01T09:14:19;12.50;99.90
16674;DHT22;8450;52.654;10.326;2023-01-01T09:16:45;12.50;99.90
16674;DHT22;8450;52.654;10.326;2023-01-01T09:19:10;12.60;99.90
16674;DHT22;8450;52.654;10.326;2023-01-01T09:21:36;12.60;99.90
16674;DHT22;8450;52.654;10.326;2023-01-01T09:24:02;12.60;99.90
16674;DHT22;8450;52.654;10.326;2023-01-01T09:26:27;12.60;99.90
16674;DHT22;8450;52.654;10.326;2023-01-01T09:28:53;12.70;99.90
16674;DHT22;8450;52.654;10.326;2023-01-01T09:31:18;12.70;99.90
16674;DHT22;8450;52.654;10.326;2023-01-01T09:33:44;12.70;99.90
16674;DHT22;8450;52.654;10.326;2023-01-01T09:36:27;12.70;99.90
16674;DHT22;8450;52.654;10.326;2023-01-01T09:38:54;12.70;99.90
16674;DHT22;8450;52.654;10.326;2023-01-01T09:41:31;12.80;99.90
16674;DHT22;8450;52.654;10.326;2023-01-01T09:46:32;12.80;99.90
16674;DHT22;8450;52.654;10.326;2023-01-01T09:49:00;12.80;99.90
16674;DHT22;8450;52.654;10.326;2023-01-01T09:51:31;12.80;99.90
16674;DHT22;8450;52.654;10.326;2023-01-01T09:56:30;12.90;99.90
16674;DHT22;8450;52.654;10.326;2023-01-01T09:58:57;12.90;99.90
16674;DHT22;8450;52.654;10.326;2023-01-01T10:04:23;12.90;99.90
16674;DHT22;8450;52.654;10.326;2023-01-01T10:07:00;12.90;99.90
16674;DHT22;8450;52.654;10.326;2023-01-01T10:09:44;12.90;99.90
16674;DHT22;8450;52.654;10.326;2023-01-01T10:12:27;12.90;99.90
16674;DHT22;8450;52.654;10.326;2023-01-01T10:15:14;12.90;99.90
16674;DHT22;8450;52.654;10.326;2023-01-01T10:25:26;12.90;99.90
16674;DHT22;8450;52.654;10.326;2023-01-01T10:28:05;12.80;99.90
16674;DHT22;8450;52.654;10.326;2023-01-01T10:30:31;12.80;99.90
16674;DHT22;8450;52.654;10.326;2023-01-01T10:32:57;12.80;99.90
16674;DHT22;8450;52.654;10.326;2023-01-01T10:35:47;12.80;99.90
16674;DHT22;8450;52.654;10.326;2023-01-01T10:38:23;12.80;99.90
16674;DHT22;8450;52.654;10.326;2023-01-01T10:40:50;12.80;99.90
16674;DHT22;8450;52.654;10.326;2023-01-01T10:43:16;12.80;99.90
16674;DHT22;8450;52.654;10.326;2023-01-01T10:45:52;12.80;99.90
16674;DHT22;8450;52.654;10.326;2023-01-01T10:48:25;12.80;99.90
16674;DHT22;8450;52.654;10.326;2023-01-01T10:51:33;12.80;99.90
16674;DHT22;8450;52.654;10.326;2023-01-01T10:59:41;12.70;99.90
16674;DHT22;8450;52.654;10.326;2023-01-01T11:02:23;12.70;99.90
16674;DHT22;8450;52.654;10.326;2023-01-01T11:04:50;12.60;99.90
16674;DHT22;8450;52.654;10.326;2023-01-01T11:07:21;12.60;99.90
16674;DHT22;8450;52.654;10.326;2023-01-01T11:09:49;12.60;99.90
16674;DHT22;8450;52.654;10.326;2023-01-01T11:12:18;12.60;99.90
16674;DHT22;8450;52.654;10.326;2023-01-01T11:14:55;12.60;99.90
16674;DHT22;8450;52.654;10.326;2023-01-01T11:17:27;12.50;99.90
16674;DHT22;8450;52.654;10.326;2023-01-01T11:19:55;12.50;99.90
16674;DHT22;8450;52.654;10.326;2023-01-01T11:22:40;12.50;99.90
16674;DHT22;8450;52.654;10.326;2023-01-01T11:25:27;12.50;99.90
16674;DHT22;8450;52.654;10.326;2023-01-01T11:28:17;12.50;99.90
16674;DHT22;8450;52.654;10.326;2023-01-01T11:31:04;12.40;99.90
16674;DHT22;8450;52.654;10.326;2023-01-01T11:33:32;12.40;99.90
16674;DHT22;8450;52.654;10.326;2023-01-01T11:35:59;12.40;99.90
16674;DHT22;8450;52.654;10.326;2023-01-01T11:38:25;12.40;99.90
16674;DHT22;8450;52.654;10.326;2023-01-01T11:40:53;12.40;99.90
16674;DHT22;8450;52.654;10.326;2023-01-01T11:43:24;12.40;99.90
16674;DHT22;8450;52.654;10.326;2023-01-01T11:45:53;12.30;99.90
16674;DHT22;8450;52.654;10.326;2023-01-01T11:48:26;12.30;99.90
16674;DHT22;8450;52.654;10.326;2023-01-01T11:50:55;12.30;99.90
16674;DHT22;8450;52.654;10.326;2023-01-01T11:56:10;12.30;99.90
16674;DHT22;8450;52.654;10.326;2023-01-01T11:58:57;12.20;99.90
16674;DHT22;8450;52.654;10.326;2023-01-01T12:01:44;12.20;99.90
16674;DHT22;8450;52.654;10.326;2023-01-01T12:04:38;12.20;99.90
16674;DHT22;8450;52.654;10.326;2023-01-01T12:07:18;12.20;99.90
16674;DHT22;8450;52.654;10.326;2023-01-01T12:09:51;12.20;99.90
16674;DHT22;8450;52.654;10.326;2023-01-01T12:15:36;12.20;99.90
16674;DHT22;8450;52.654;10.326;2023-01-01T12:18:17;12.20;99.90
16674;DHT22;8450;52.654;10.326;2023-01-01T12:20:53;12.20;99.90
16674;DHT22;8450;52.654;10.326;2023-01-01T12:23:20;12.10;99.90
16674;DHT22;8450;52.654;10.326;2023-01-01T12:25:54;12.10;99.90
16674;DHT22;8450;52.654;10.326;2023-01-01T12:28:37;12.10;99.90
16674;DHT22;8450;52.654;10.326;2023-01-01T12:34:20;12.00;99.90
16674;DHT22;8450;52.654;10.326;2023-01-01T12:37:08;12.00;99.90
16674;DHT22;8450;52.654;10.326;2023-01-01T12:40:07;12.00;99.90
16674;DHT22;8450;52.654;10.326;2023-01-01T12:45:49;12.00;99.90
16674;DHT22;8450;52.654;10.326;2023-01-01T12:56:42;11.90;99.90
16674;DHT22;8450;52.654;10.326;2023-01-01T12:59:18;11.90;99.90
16674;DHT22;8450;52.654;10.326;2023-01-01T13:22:35;11.70;99.90
16674;DHT22;8450;52.654;10.326;2023-01-01T13:33:24;11.50;99.90
16674;DHT22;8450;52.654;10.326;2023-01-01T13:41:30;11.40;99.90
